Time;durP1;ratioP1;P1;durP2;ratioP2;P2;SDS_P1;SDS_P2;PMS_P1;PMS_P2;Temp;Humidity;BMP_temperature;BMP_pressure;BME280_temperature;BME280_humidity;BME280_pressure;Samples;Min_cycle;Max_cycle;Signal;HPM_P1;HPM_P2
2021/03/25 00:01:33;;;;;;;163.40;76.10;;;;;;;3.80;75.97;99252.69;239725;1193;23208;-74
2021/03/25 00:06:43;;;;;;;183.90;78.90;;;;;;;3.85;75.51;99255.45;239723;1193;23270;-73
2021/03/25 00:11:47;;;;;;;165.40;75.13;;;;;;;3.94;75.57;99256.72;239592;1196;23118;-74
2021/03/25 00:16:49;;;;;;;170.93;75.37;;;;;;;3.98;75.65;99257.05;239289;1196;23115;-74
2021/03/25 00:21:53;;;;;;;172.07;76.10;;;;;;;4.07;76.13;99254.84;239794;1196;23088;-74
2021/03/25 00:26:55;;;;;;;144.25;70.45;;;;;;;4.06;75.65;99255.90;239599;1193;23127;-73
2021/03/25 00:31:58;;;;;;;159.83;69.87;;;;;;;4.09;75.49;99253.56;239468;1196;23100;-75
2021/03/25 00:37:01;;;;;;;158.17;68.03;;;;;;;4.14;75.73;99249.41;239533;1193;23112;-73
2021/03/25 00:42:04;;;;;;;140.05;66.55;;;;;;;4.22;75.67;99243.75;239537;1199;23230;-74
2021/03/25 00:47:08;;;;;;;134.13;61.23;;;;;;;4.18;75.33;99251.35;239364;1196;23199;-75
2021/03/25 00:52:11;;;;;;;137.57;58.63;;;;;;;4.07;75.07;99246.88;239577;1196;23111;-74
2021/03/25 00:57:15;;;;;;;147.60;69.90;;;;;;;3.90;74.89;99238.84;239528;1193;23123;-74
2021/03/25 01:02:17;;;;;;;157.07;69.27;;;;;;;3.78;75.49;99228.27;239385;1196;23164;-73
2021/03/25 01:07:28;;;;;;;143.67;64.57;;;;;;;3.73;75.89;99214.91;239666;1196;23135;-74
2021/03/25 01:12:30;;;;;;;155.87;68.07;;;;;;;3.69;75.93;99219.05;239781;1193;23097;-73
2021/03/25 01:17:37;;;;;;;148.47;63.80;;;;;;;3.66;75.80;99215.02;239463;1196;23096;-73
2021/03/25 01:22:40;;;;;;;132.30;61.10;;;;;;;3.66;76.12;99215.02;239567;1196;23243;-72
2021/03/25 01:27:43;;;;;;;139.20;61.40;;;;;;;3.67;76.09;99216.64;239689;1193;23273;-73
2021/03/25 01:32:48;;;;;;;122.15;54.95;;;;;;;3.70;76.26;99204.78;239574;1199;23234;-75
2021/03/25 01:37:54;;;;;;;142.85;65.40;;;;;;;3.69;75.79;99203.16;239406;1199;23199;-75
2021/03/25 01:43:22;;;;;;;130.27;57.40;;;;;;;3.69;76.09;99198.66;239623;1196;23193;-74
2021/03/25 01:48:34;;;;;;;132.15;61.85;;;;;;;3.72;76.06;99192.09;239916;1193;28251;-73
2021/03/25 01:54:23;;;;;;;136.80;57.15;;;;;;;3.82;76.39;99183.55;239672;1199;26261;-73
2021/03/25 02:00:04;;;;;;;135.13;60.57;;;;;;;3.95;76.49;99185.95;239579;1193;23137;-76
2021/03/25 02:05:53;;;;;;;114.20;52.67;;;;;;;4.06;76.11;99171.06;239711;1199;23154;-74
2021/03/25 02:11:18;;;;;;;117.50;54.63;;;;;;;4.14;76.17;99177.81;239683;1193;23115;-74
2021/03/25 02:16:27;;;;;;;118.95;53.40;;;;;;;4.10;75.67;99170.34;239733;1193;23135;-74
2021/03/25 02:22:23;;;;;;;128.20;55.07;;;;;;;4.08;75.77;99163.66;239529;1196;23249;-74
2021/03/25 02:27:43;;;;;;;104.50;48.70;;;;;;;4.00;75.81;99175.45;239667;1193;23558;-73
2021/03/25 02:32:52;;;;;;;122.87;56.20;;;;;;;3.89;75.42;99176.27;239646;1196;23125;-74
2021/03/25 02:38:11;;;;;;;110.55;51.85;;;;;;;3.80;75.81;99162.58;239560;1193;23276;-74
2021/03/25 02:43:21;;;;;;;117.83;51.10;;;;;;;3.66;76.05;99166.53;239659;1199;28207;-74
2021/03/25 02:48:28;;;;;;;121.27;54.57;;;;;;;3.54;76.27;99154.11;239629;1193;23109;-74
2021/03/25 02:53:37;;;;;;;119.00;51.83;;;;;;;3.50;76.76;99142.37;239560;1196;23308;-74
2021/03/25 02:58:44;;;;;;;113.80;51.70;;;;;;;3.51;76.71;99136.05;239461;1199;23096;-72
2021/03/25 03:04:16;;;;;;;118.80;51.35;;;;;;;3.65;77.02;99143.72;239535;1193;23115;-74
2021/03/25 03:09:25;;;;;;;91.97;43.43;;;;;;;3.71;76.71;99143.59;239794;1193;23681;-75
2021/03/25 03:14:35;;;;;;;79.23;37.63;;;;;;;3.68;76.83;99146.72;239468;1196;23164;-73
2021/03/25 03:19:51;;;;;;;97.07;43.40;;;;;;;3.70;76.76;99144.63;239723;1193;23099;-73
2021/03/25 03:24:54;;;;;;;78.25;39.60;;;;;;;3.70;76.44;99151.78;239425;1197;23633;-74
2021/03/25 03:30:22;;;;;;;76.97;36.20;;;;;;;3.72;76.84;99145.22;239481;1196;23125;-73
2021/03/25 03:35:51;;;;;;;77.35;37.40;;;;;;;3.69;76.29;99139.56;239721;1193;23260;-73
2021/03/25 03:40:56;;;;;;;79.77;37.10;;;;;;;3.63;76.25;99138.66;239683;1193;23109;-72
2021/03/25 03:46:23;;;;;;;86.47;40.20;;;;;;;3.58;76.77;99131.42;239417;1196;24724;-74
2021/03/25 03:51:32;;;;;;;79.23;35.90;;;;;;;3.52;77.12;99137.63;239665;1193;23106;-75
2021/03/25 03:56:37;;;;;;;93.53;41.60;;;;;;;3.46;76.91;99146.52;239834;1199;26191;-74
2021/03/25 04:01:51;;;;;;;80.73;37.70;;;;;;;3.45;76.66;99141.45;239550;1196;23127;-74
2021/03/25 04:07:00;;;;;;;81.95;38.20;;;;;;;3.46;76.71;99129.83;239576;1195;23179;-74
2021/03/25 04:12:26;;;;;;;83.80;41.65;;;;;;;3.47;76.69;99139.37;239429;1193;23132;-73
2021/03/25 04:17:34;;;;;;;77.70;35.20;;;;;;;3.48;77.32;99122.45;239652;1193;23122;-74
2021/03/25 04:23:01;;;;;;;86.00;38.85;;;;;;;3.53;77.14;99131.30;239897;1193;23102;-75
2021/03/25 04:28:10;;;;;;;76.10;35.75;;;;;;;3.56;76.96;99140.63;239564;1193;23237;-75
2021/03/25 04:33:16;;;;;;;70.75;32.35;;;;;;;3.62;76.79;99133.59;239748;1193;23416;-75
2021/03/25 04:38:24;;;;;;;77.73;35.87;;;;;;;3.68;77.27;99135.30;239644;1193;23109;-76
2021/03/25 04:43:28;;;;;;;85.10;38.73;;;;;;;3.74;76.70;99140.47;239625;1199;25990;-75
2021/03/25 04:48:39;;;;;;;80.37;38.23;;;;;;;3.84;77.23;99137.22;239496;1199;26801;-73
2021/03/25 04:53:43;;;;;;;71.35;36.10;;;;;;;3.93;76.62;99145.59;239529;1194;23130;-74
2021/03/25 04:58:48;;;;;;;66.95;32.15;;;;;;;4.00;77.08;99142.82;239693;1193;23096;-73
2021/03/25 05:03:56;;;;;;;68.03;33.27;;;;;;;4.04;76.49;99152.73;239740;1193;23131;-73
2021/03/25 05:08:59;;;;;;;69.20;34.30;;;;;;;4.10;76.33;99151.78;239673;1193;25959;-74
2021/03/25 05:14:11;;;;;;;70.85;33.35;;;;;;;4.17;76.55;99151.64;239800;1196;23211;-74
2021/03/25 05:19:18;;;;;;;60.10;31.20;;;;;;;4.21;76.04;99152.78;239665;1193;23098;-74
2021/03/25 05:24:33;;;;;;;60.87;30.33;;;;;;;4.23;75.73;99155.99;239612;1196;23115;-74
2021/03/25 05:29:38;;;;;;;45.77;25.13;;;;;;;4.27;75.78;99159.78;239683;1199;23378;-74
2021/03/25 05:34:41;;;;;;;62.97;29.87;;;;;;;4.25;75.69;99156.58;239650;1193;27287;-75
2021/03/25 05:39:44;;;;;;;64.97;32.17;;;;;;;4.31;75.83;99156.65;239604;1193;23109;-74
2021/03/25 05:45:15;;;;;;;58.35;31.30;;;;;;;4.40;75.35;99157.89;239560;1197;23100;-75
2021/03/25 05:50:23;;;;;;;73.00;33.15;;;;;;;4.41;75.33;99165.60;239650;1193;23214;-74
2021/03/25 05:56:09;;;;;;;65.67;33.03;;;;;;;4.44;75.19;99170.42;239586;1198;24539;-74
2021/03/25 06:01:30;;;;;;;71.43;35.93;;;;;;;4.55;75.21;99170.63;239393;1199;23382;-75
2021/03/25 06:06:55;;;;;;;71.23;35.43;;;;;;;4.81;75.83;99166.53;240070;1196;23278;-73
2021/03/25 06:12:10;;;;;;;58.83;31.13;;;;;;;5.04;75.41;99176.20;239613;1193;23100;-74
2021/03/25 06:17:53;;;;;;;66.10;33.17;;;;;;;5.01;74.21;99181.18;239872;1196;23109;-74
2021/03/25 06:23:27;;;;;;;73.37;36.90;;;;;;;5.07;74.42;99177.58;239481;1199;23109;-74
2021/03/25 06:28:37;;;;;;;63.90;32.80;;;;;;;5.18;74.16;99176.68;239722;1193;23105;-74
2021/03/25 06:33:46;;;;;;;62.80;30.95;;;;;;;5.24;73.84;99178.36;239435;1193;27371;-74
2021/03/25 06:38:56;;;;;;;71.25;35.65;;;;;;;5.28;73.78;99189.31;239860;1193;23103;-74
2021/03/25 06:44:14;;;;;;;61.63;32.07;;;;;;;5.40;73.59;99192.69;239890;1196;23128;-74
2021/03/25 06:49:34;;;;;;;73.73;36.03;;;;;;;5.39;73.28;99188.41;240071;1193;23135;-75
2021/03/25 06:54:36;;;;;;;63.47;33.07;;;;;;;5.54;73.14;99194.98;239904;1196;23119;-75
2021/03/25 06:59:40;;;;;;;70.30;36.70;;;;;;;5.58;73.03;99206.73;239781;1196;23131;-74
2021/03/25 07:04:46;;;;;;;68.17;34.40;;;;;;;5.70;73.08;99204.78;240108;1193;23104;-75
2021/03/25 07:09:49;;;;;;;61.43;32.73;;;;;;;5.92;73.23;99207.46;240286;1193;23154;-75
2021/03/25 07:14:53;;;;;;;63.80;30.60;;;;;;;6.21;73.00;99207.31;240525;1193;23129;-76
2021/03/25 07:19:56;;;;;;;63.20;34.80;;;;;;;6.33;71.78;99205.30;240142;1193;23437;-75
2021/03/25 07:25:22;;;;;;;69.40;31.83;;;;;;;6.37;71.51;99208.28;240761;1193;23125;-74
2021/03/25 07:30:26;;;;;;;62.40;33.13;;;;;;;6.44;71.20;99214.20;240775;1199;23244;-74
2021/03/25 07:35:30;;;;;;;62.30;34.60;;;;;;;6.49;70.94;99210.78;240233;1199;23118;-73
2021/03/25 07:40:38;;;;;;;62.07;32.30;;;;;;;6.62;71.05;99214.93;240231;1193;25881;-73
2021/03/25 07:45:42;;;;;;;61.60;32.55;;;;;;;6.85;70.45;99213.80;240027;1196;23180;-73
2021/03/25 07:50:46;;;;;;;60.93;31.90;;;;;;;6.99;69.49;99208.86;240029;1193;23088;-74
2021/03/25 07:55:49;;;;;;;59.37;31.70;;;;;;;7.12;69.84;99213.77;241560;1199;25968;-73
2021/03/25 08:01:15;;;;;;;51.33;27.73;;;;;;;7.33;69.93;99214.73;240322;1193;23119;-73
2021/03/25 08:06:39;;;;;;;56.50;30.27;;;;;;;7.60;69.73;99223.70;240304;1193;23143;-73
2021/03/25 08:11:57;;;;;;;51.20;30.05;;;;;;;8.00;69.16;99215.11;240530;1197;23912;-73
2021/03/25 08:17:09;;;;;;;60.23;33.93;;;;;;;8.19;67.76;99215.44;240490;1193;23219;-75
2021/03/25 08:22:21;;;;;;;55.43;32.27;;;;;;;8.55;67.90;99212.91;240490;1193;23097;-74
2021/03/25 08:27:46;;;;;;;59.33;31.93;;;;;;;8.62;66.47;99218.00;240592;1193;23114;-75
2021/03/25 08:33:21;;;;;;;55.30;31.00;;;;;;;8.78;66.35;99218.02;240713;1196;23099;-73
2021/03/25 08:38:53;;;;;;;53.25;30.85;;;;;;;9.14;67.12;99218.05;240710;1193;23381;-73
2021/03/25 08:44:44;;;;;;;48.87;27.87;;;;;;;9.61;65.97;99210.76;240618;1193;23085;-74
2021/03/25 08:50:32;;;;;;;53.13;30.73;;;;;;;9.78;64.69;99205.09;240306;1196;23120;-75
2021/03/25 08:55:39;;;;;;;50.07;30.20;;;;;;;9.90;62.74;99210.95;243048;1198;23101;-75
2021/03/25 09:00:46;;;;;;;54.20;31.80;;;;;;;10.07;63.69;99200.73;240595;1196;23232;-75
2021/03/25 09:05:57;;;;;;;49.95;30.40;;;;;;;10.46;63.74;99201.09;242443;1196;23129;-75
2021/03/25 09:11:03;;;;;;;46.67;29.33;;;;;;;10.68;62.70;99201.48;239978;1196;23100;-74
2021/03/25 09:16:21;;;;;;;44.90;25.30;;;;;;;11.10;61.33;99208.14;240153;1196;23117;-75
2021/03/25 09:21:30;;;;;;;47.05;29.00;;;;;;;11.19;59.65;99199.49;239983;1196;23127;-75
2021/03/25 09:26:51;;;;;;;48.60;29.75;;;;;;;11.29;58.57;99194.06;240396;1193;23109;-75
2021/03/25 09:31:54;;;;;;;50.37;29.60;;;;;;;11.26;58.60;99192.73;240513;1198;23447;-75
2021/03/25 09:37:17;;;;;;;52.70;32.00;;;;;;;11.12;58.42;99189.09;240370;1193;26121;-75
2021/03/25 09:42:21;;;;;;;47.67;29.30;;;;;;;11.08;59.02;99188.05;239909;1196;23104;-75
2021/03/25 09:47:42;;;;;;;39.50;24.67;;;;;;;10.69;57.56;99195.06;239982;1198;30022;-75
2021/03/25 09:53:03;;;;;;;31.90;20.65;;;;;;;10.57;57.17;99186.56;240312;1193;23106;-74
2021/03/25 09:58:37;;;;;;;32.87;20.73;;;;;;;10.37;56.68;99190.17;240285;1193;23114;-75
2021/03/25 10:04:34;;;;;;;33.20;20.60;;;;;;;10.30;56.44;99179.73;240083;1193;23170;-75
2021/03/25 10:09:49;;;;;;;34.60;21.47;;;;;;;10.47;56.98;99187.42;239903;1193;23095;-74
2021/03/25 10:14:53;;;;;;;35.10;22.60;;;;;;;10.72;56.74;99178.42;240435;1193;23276;-74
2021/03/25 10:19:56;;;;;;;39.00;22.93;;;;;;;10.89;56.53;99172.66;240116;1196;23105;-75
2021/03/25 10:25:00;;;;;;;37.20;24.13;;;;;;;10.93;56.21;99175.59;240044;1199;23106;-74
2021/03/25 10:30:21;;;;;;;37.07;24.03;;;;;;;11.00;56.14;99176.06;239940;1193;23945;-75
2021/03/25 10:35:48;;;;;;;37.53;23.93;;;;;;;11.12;56.27;99175.68;240028;1193;23109;-75
2021/03/25 10:40:57;;;;;;;38.97;25.27;;;;;;;11.25;55.84;99169.67;239991;1196;23335;-75
2021/03/25 10:46:05;;;;;;;39.77;25.40;;;;;;;11.24;55.64;99167.27;240110;1196;23130;-75
2021/03/25 10:51:11;;;;;;;42.90;26.50;;;;;;;11.25;55.54;99171.56;240224;1196;23739;-75
2021/03/25 10:56:19;;;;;;;41.73;25.30;;;;;;;11.15;55.17;99167.09;240512;1193;23105;-75
2021/03/25 11:01:30;;;;;;;36.55;24.70;;;;;;;11.30;55.26;99163.45;240130;1196;23105;-75
2021/03/25 11:06:36;;;;;;;35.35;21.35;;;;;;;11.42;54.91;99150.45;240224;1193;23229;-75
2021/03/25 11:11:39;;;;;;;33.85;23.00;;;;;;;11.39;54.42;99145.66;240107;1196;23118;-75
2021/03/25 11:16:53;;;;;;;37.57;24.63;;;;;;;11.45;54.77;99138.36;240251;1193;26236;-76
2021/03/25 11:21:58;;;;;;;35.13;23.50;;;;;;;11.62;54.77;99136.01;240008;1196;23232;-74
2021/03/25 11:27:11;;;;;;;36.55;24.25;;;;;;;11.77;54.80;99129.67;239985;1196;27409;-73
2021/03/25 11:32:16;;;;;;;38.53;24.20;;;;;;;11.95;54.03;99128.14;240261;1193;23091;-74
2021/03/25 11:37:36;;;;;;;37.95;24.00;;;;;;;12.19;54.61;99123.81;240394;1193;23922;-74
2021/03/25 11:42:43;;;;;;;36.60;23.75;;;;;;;12.41;54.33;99120.52;241298;1193;23132;-74
2021/03/25 11:47:46;;;;;;;37.00;24.30;;;;;;;12.52;53.33;99116.61;246042;1196;22861;-74
2021/03/25 11:52:52;;;;;;;35.30;23.15;;;;;;;12.64;53.21;99108.86;241460;1193;27317;-74
2021/03/25 11:57:56;;;;;;;34.90;22.70;;;;;;;12.84;52.79;99107.75;240368;1193;23127;-74
2021/03/25 12:03:13;;;;;;;37.13;23.60;;;;;;;12.93;52.10;99104.38;241357;1193;23169;-75
2021/03/25 12:08:16;;;;;;;36.20;24.50;;;;;;;12.94;52.16;99097.89;244080;1199;23217;-75
2021/03/25 12:13:19;;;;;;;27.40;18.95;;;;;;;13.06;51.86;99092.84;240433;1199;23101;-76
2021/03/25 12:18:32;;;;;;;35.85;24.13;;;;;;;13.11;51.99;99083.87;240253;1193;23107;-74
2021/03/25 12:23:40;;;;;;;33.70;22.60;;;;;;;13.31;51.77;99088.09;240398;1193;25965;-75
2021/03/25 12:28:43;;;;;;;36.13;24.93;;;;;;;13.35;50.70;99078.36;240440;1196;23180;-74
2021/03/25 12:33:45;;;;;;;36.73;23.53;;;;;;;13.12;50.06;99075.53;239984;1196;23599;-75
2021/03/25 12:38:49;;;;;;;37.70;24.90;;;;;;;13.09;50.98;99073.41;240257;1193;24574;-75
2021/03/25 12:44:13;;;;;;;33.67;23.37;;;;;;;13.21;50.58;99062.17;239875;1196;23115;-75
2021/03/25 12:49:26;;;;;;;34.43;23.83;;;;;;;13.33;50.63;99069.73;240060;1193;23074;-75
2021/03/25 12:54:30;;;;;;;35.15;23.20;;;;;;;13.40;50.40;99059.40;240155;1196;23228;-75
2021/03/25 12:59:33;;;;;;;34.90;23.75;;;;;;;13.41;50.02;99065.59;239865;1197;23145;-75
2021/03/25 13:04:36;;;;;;;29.63;20.73;;;;;;;13.41;49.78;99061.00;240060;1195;23102;-75
2021/03/25 13:09:39;;;;;;;32.70;21.20;;;;;;;13.41;50.18;99061.00;240123;1193;23110;-75
2021/03/25 13:14:41;;;;;;;33.13;21.37;;;;;;;13.32;49.17;99058.19;240024;1193;23118;-75
2021/03/25 13:19:44;;;;;;;31.87;22.57;;;;;;;13.23;49.32;99040.35;239783;1199;23133;-76
2021/03/25 13:24:48;;;;;;;32.93;22.13;;;;;;;13.20;49.28;99040.95;239915;1196;23117;-74
2021/03/25 13:29:51;;;;;;;35.50;23.85;;;;;;;13.24;49.66;99041.95;240012;1193;23094;-75
2021/03/25 13:34:53;;;;;;;36.20;23.00;;;;;;;13.30;49.45;99033.46;239929;1196;23108;-75
2021/03/25 13:39:57;;;;;;;33.67;22.73;;;;;;;13.25;49.52;99038.15;239805;1193;23187;-77
2021/03/25 13:44:59;;;;;;;32.03;22.53;;;;;;;13.26;48.41;99035.19;239978;1193;23081;-75
2021/03/25 13:50:09;;;;;;;30.15;21.15;;;;;;;13.41;48.89;99022.55;240231;1193;23168;-75
2021/03/25 13:55:34;;;;;;;31.20;22.28;;;;;;;13.42;48.71;99027.62;240203;1198;23118;-75
2021/03/25 14:00:38;;;;;;;31.90;21.60;;;;;;;13.61;49.02;99022.13;240242;1193;23124;-75
2021/03/25 14:05:41;;;;;;;31.47;21.80;;;;;;;13.68;48.83;99027.07;240065;1193;23188;-76
2021/03/25 14:10:44;;;;;;;28.80;20.43;;;;;;;13.69;48.17;99017.91;239948;1193;23273;-75
2021/03/25 14:15:49;;;;;;;33.13;22.70;;;;;;;13.65;47.97;99022.30;240054;1193;23124;-74
2021/03/25 14:20:53;;;;;;;36.05;21.75;;;;;;;13.61;48.11;99010.54;239988;1196;23316;-75
2021/03/25 14:25:56;;;;;;;30.00;21.00;;;;;;;13.61;48.21;99010.54;240001;1198;25962;-75
2021/03/25 14:31:00;;;;;;;30.20;21.50;;;;;;;13.56;48.14;99006.07;239861;1193;23087;-75
2021/03/25 14:36:06;;;;;;;31.15;21.70;;;;;;;13.52;48.22;99011.25;240431;1199;23114;-76
2021/03/25 14:41:09;;;;;;;33.90;22.80;;;;;;;13.51;48.09;99004.30;240071;1193;23103;-75
2021/03/25 14:46:11;;;;;;;29.93;21.40;;;;;;;13.52;48.13;99008.55;239873;1193;23237;-75
2021/03/25 14:51:15;;;;;;;29.70;21.40;;;;;;;13.52;48.18;99003.17;240298;1193;23244;-76
2021/03/25 14:56:18;;;;;;;31.07;22.10;;;;;;;13.46;47.72;99001.70;240236;1199;25971;-74
2021/03/25 15:01:20;;;;;;;31.23;21.70;;;;;;;13.27;47.28;99006.38;240091;1193;23102;-76
2021/03/25 15:06:23;;;;;;;33.80;23.70;;;;;;;13.11;47.93;99000.49;240353;1193;23105;-77
2021/03/25 15:11:28;;;;;;;34.27;24.07;;;;;;;13.15;48.44;99007.69;240005;1193;23138;-76
2021/03/25 15:16:32;;;;;;;34.47;22.73;;;;;;;13.17;48.80;99010.86;239918;1193;23103;-76
2021/03/25 15:21:34;;;;;;;35.20;22.43;;;;;;;13.13;48.35;99006.38;239991;1193;23107;-77
2021/03/25 15:26:37;;;;;;;36.80;24.40;;;;;;;13.05;48.34;99015.15;239831;1193;23109;-76
2021/03/25 15:31:42;;;;;;;36.60;24.75;;;;;;;13.01;49.18;99009.55;239573;1193;23126;-76
2021/03/25 15:36:45;;;;;;;38.90;23.90;;;;;;;12.99;48.92;99009.86;239761;1196;28311;-76
2021/03/25 15:41:48;;;;;;;35.60;23.33;;;;;;;12.96;48.74;99002.39;239654;1193;23139;-76
2021/03/25 15:46:51;;;;;;;35.23;23.53;;;;;;;12.91;48.80;99015.14;239992;1196;23160;-76
2021/03/25 15:51:54;;;;;;;37.30;24.20;;;;;;;12.83;48.93;99014.73;239840;1193;23131;-76
2021/03/25 15:56:57;;;;;;;36.65;24.65;;;;;;;12.71;49.10;99000.98;239609;1194;23846;-76
2021/03/25 16:01:59;;;;;;;37.40;25.50;;;;;;;12.54;49.66;99003.45;239696;1193;23187;-75
2021/03/25 16:07:04;;;;;;;37.40;26.30;;;;;;;12.34;49.10;99013.45;239503;1193;23254;-76
2021/03/25 16:12:10;;;;;;;40.55;25.85;;;;;;;12.17;50.01;99007.80;239773;1196;23271;-78
2021/03/25 16:17:13;;;;;;;49.13;30.97;;;;;;;11.98;50.71;99014.79;239673;1193;23125;-75
2021/03/25 16:22:16;;;;;;;41.85;26.35;;;;;;;11.80;50.55;99015.57;239695;1196;23139;-76
2021/03/25 16:27:18;;;;;;;36.00;24.70;;;;;;;11.62;50.64;99015.27;239545;1196;23121;-77
2021/03/25 16:32:21;;;;;;;39.25;25.00;;;;;;;11.44;51.24;99014.18;239555;1193;23118;-76
2021/03/25 16:37:24;;;;;;;37.90;26.05;;;;;;;11.25;51.56;99007.98;239804;1193;23210;-76
2021/03/25 16:42:27;;;;;;;54.45;30.90;;;;;;;11.07;51.77;99015.67;239709;1193;23109;-76
2021/03/25 16:47:29;;;;;;;77.80;41.00;;;;;;;10.85;52.28;99010.81;239537;1193;23263;-76
2021/03/25 16:52:34;;;;;;;63.20;35.07;;;;;;;10.64;52.77;99017.47;239727;1196;23108;-76
2021/03/25 16:57:37;;;;;;;50.35;30.10;;;;;;;10.38;53.21;99018.50;239575;1196;23116;-76
2021/03/25 17:02:39;;;;;;;48.30;27.20;;;;;;;10.13;53.57;99024.83;239638;1196;23116;-76
2021/03/25 17:07:44;;;;;;;40.73;24.93;;;;;;;9.90;53.94;99029.77;239788;1196;23115;-75
2021/03/25 17:12:47;;;;;;;43.03;25.23;;;;;;;9.64;54.48;99023.80;239886;1196;23110;-76
2021/03/25 17:17:50;;;;;;;47.33;28.13;;;;;;;9.41;54.44;99026.05;239891;1195;23129;-76
2021/03/25 17:22:53;;;;;;;42.60;25.40;;;;;;;9.19;55.45;99034.41;239749;1196;23187;-76
2021/03/25 17:27:56;;;;;;;44.35;26.55;;;;;;;8.99;55.71;99035.25;239622;1196;23098;-76
2021/03/25 17:33:02;;;;;;;50.73;25.90;;;;;;;8.81;56.46;99044.63;239690;1196;23135;-77
2021/03/25 17:38:06;;;;;;;51.50;29.60;;;;;;;8.65;57.33;99061.77;239717;1196;23102;-75
2021/03/25 17:43:10;;;;;;;55.27;32.57;;;;;;;8.48;57.50;99065.52;239450;1196;23102;-75
2021/03/25 17:48:19;;;;;;;57.23;33.07;;;;;;;8.35;57.49;99061.48;239544;1196;23146;-75
2021/03/25 17:53:23;;;;;;;62.80;32.30;;;;;;;8.22;58.08;99060.11;239710;1196;23105;-76
2021/03/25 17:58:28;;;;;;;58.30;31.10;;;;;;;8.10;58.05;99074.77;239692;1196;27316;-76
2021/03/25 18:03:31;;;;;;;59.05;33.30;;;;;;;7.94;58.19;99073.95;239777;1196;23108;-76
2021/03/25 18:08:34;;;;;;;70.10;36.60;;;;;;;7.76;58.83;99075.23;239698;1196;23128;-77
2021/03/25 18:13:39;;;;;;;81.80;42.73;;;;;;;7.62;59.32;99089.05;239761;1193;23132;-77
2021/03/25 18:18:42;;;;;;;77.07;42.70;;;;;;;7.52;60.13;99086.34;239710;1199;23116;-76
2021/03/25 18:23:45;;;;;;;75.60;41.00;;;;;;;7.45;60.28;99091.91;239698;1199;23537;-76
2021/03/25 18:28:48;;;;;;;74.15;40.45;;;;;;;7.36;60.57;99093.48;239668;1193;23095;-76
2021/03/25 18:33:51;;;;;;;80.85;40.70;;;;;;;7.27;61.31;99098.48;239674;1193;23103;-76
2021/03/25 18:38:54;;;;;;;75.53;39.80;;;;;;;7.17;61.47;99099.22;239752;1193;23376;-75
2021/03/25 18:43:57;;;;;;;83.85;43.25;;;;;;;7.10;61.56;99095.20;239821;1196;23137;-75
2021/03/25 18:49:00;;;;;;;84.80;44.30;;;;;;;6.99;61.12;99099.65;239706;1196;23099;-75
2021/03/25 18:54:05;;;;;;;91.00;43.70;;;;;;;6.87;61.95;99105.17;239731;1196;23323;-75
2021/03/25 18:59:07;;;;;;;101.83;48.10;;;;;;;6.79;62.53;99108.31;240297;1196;27304;-75
2021/03/25 19:04:11;;;;;;;105.93;55.70;;;;;;;6.72;62.82;99108.52;239627;1196;23080;-75
2021/03/25 19:09:14;;;;;;;110.30;57.03;;;;;;;6.67;62.68;99111.95;239613;1196;23095;-75
2021/03/25 19:14:18;;;;;;;116.43;60.73;;;;;;;6.59;63.22;99112.41;239719;1196;23105;-75
2021/03/25 19:19:22;;;;;;;107.33;57.00;;;;;;;6.47;62.91;99098.47;239667;1196;23134;-75
2021/03/25 19:24:25;;;;;;;114.90;54.55;;;;;;;6.34;63.03;99113.78;239519;1196;23125;-75
2021/03/25 19:29:28;;;;;;;116.75;58.60;;;;;;;6.21;63.39;99122.19;239771;1196;23172;-75
2021/03/25 19:34:31;;;;;;;127.40;63.80;;;;;;;6.07;63.69;99123.61;239828;1199;23131;-76
2021/03/25 19:39:34;;;;;;;132.75;68.85;;;;;;;5.98;64.26;99129.38;239623;1196;23335;-75
2021/03/25 19:44:37;;;;;;;138.20;73.03;;;;;;;5.96;64.27;99123.48;239574;1196;23145;-75
2021/03/25 19:49:40;;;;;;;163.75;83.35;;;;;;;5.94;64.54;99136.20;239912;1196;23135;-75
2021/03/25 19:54:43;;;;;;;154.60;82.30;;;;;;;5.89;64.58;99130.85;239633;1196;23141;-75
2021/03/25 19:59:47;;;;;;;167.30;90.87;;;;;;;5.78;64.89;99140.55;239863;1198;23094;-76
2021/03/25 20:04:50;;;;;;;141.43;78.90;;;;;;;5.63;64.99;99129.73;239656;1196;23139;-76
2021/03/25 20:09:53;;;;;;;161.37;80.73;;;;;;;5.46;65.24;99145.73;239688;1194;23140;-75
2021/03/25 20:14:57;;;;;;;170.65;84.25;;;;;;;5.38;65.86;99148.80;239997;1195;23305;-76
2021/03/25 20:20:00;;;;;;;165.65;81.10;;;;;;;5.27;66.11;99153.16;239933;1195;23119;-77
2021/03/25 20:25:05;;;;;;;165.13;83.33;;;;;;;5.14;66.18;99163.07;239853;1196;24536;-76
2021/03/25 20:30:09;;;;;;;166.13;85.43;;;;;;;5.07;66.58;99158.98;239634;1196;23107;-76
2021/03/25 20:35:13;;;;;;;160.50;83.40;;;;;;;5.00;66.89;99161.80;239580;1196;23105;-76
2021/03/25 20:40:21;;;;;;;161.17;80.87;;;;;;;4.93;66.85;99174.44;239733;1195;23103;-75
2021/03/25 20:45:31;;;;;;;187.33;92.60;;;;;;;4.90;66.92;99172.27;239794;1199;23282;-76
2021/03/25 20:50:34;;;;;;;263.58;122.03;;;;;;;4.90;67.22;99170.41;239706;1196;23199;-77
2021/03/25 20:55:40;;;;;;;301.73;135.70;;;;;;;4.88;67.62;99169.86;239856;1194;23115;-76
2021/03/25 21:00:49;;;;;;;321.47;142.17;;;;;;;4.84;67.53;99175.87;239820;1193;23120;-75
2021/03/25 21:05:52;;;;;;;336.27;147.70;;;;;;;4.75;67.42;99178.13;239680;1193;23102;-75
2021/03/25 21:10:57;;;;;;;339.10;142.80;;;;;;;4.67;67.57;99175.86;239544;1193;23164;-76
2021/03/25 21:16:00;;;;;;;334.80;146.03;;;;;;;4.61;67.95;99177.63;239809;1193;27307;-76
2021/03/25 21:21:18;;;;;;;347.33;152.10;;;;;;;4.58;67.93;99178.10;239799;1199;23114;-76
2021/03/25 21:26:21;;;;;;;354.45;150.95;;;;;;;4.55;68.31;99171.42;239874;1193;23106;-76
2021/03/25 21:31:24;;;;;;;339.53;150.97;;;;;;;4.52;68.22;99176.39;240179;1193;23116;-75
2021/03/25 21:36:29;;;;;;;339.47;149.50;;;;;;;4.43;68.42;99175.97;239793;1196;23103;-75
2021/03/25 21:41:32;;;;;;;326.80;142.45;;;;;;;4.36;68.25;99172.66;239660;1193;27439;-76
2021/03/25 21:46:35;;;;;;;325.17;139.37;;;;;;;4.34;68.89;99174.73;239476;1197;23236;-77
2021/03/25 21:51:40;;;;;;;325.47;143.33;;;;;;;4.36;69.16;99172.66;239691;1196;23115;-77
2021/03/25 21:56:43;;;;;;;325.43;143.40;;;;;;;4.36;69.32;99175.31;239566;1199;24734;-75
2021/03/25 22:01:45;;;;;;;292.03;129.13;;;;;;;4.29;68.87;99186.06;239676;1195;24549;-75
2021/03/25 22:06:48;;;;;;;299.80;131.27;;;;;;;4.20;68.75;99180.34;239782;1196;23141;-75
2021/03/25 22:11:51;;;;;;;317.50;132.55;;;;;;;4.10;69.47;99180.95;239838;1196;23132;-75
2021/03/25 22:16:54;;;;;;;310.30;136.10;;;;;;;4.05;69.52;99175.53;239699;1196;23132;-75
2021/03/25 22:21:57;;;;;;;325.25;142.95;;;;;;;4.01;69.19;99178.90;239611;1196;23106;-75
2021/03/25 22:26:59;;;;;;;340.97;145.80;;;;;;;3.96;69.37;99181.44;239426;1196;23126;-75
2021/03/25 22:32:03;;;;;;;320.25;138.90;;;;;;;3.92;70.15;99186.42;239602;1196;23123;-74
2021/03/25 22:37:06;;;;;;;289.87;128.93;;;;;;;3.85;70.00;99181.25;239578;1196;23144;-76
2021/03/25 22:42:09;;;;;;;285.13;123.90;;;;;;;3.81;70.01;99179.30;239538;1196;23116;-76
2021/03/25 22:47:13;;;;;;;290.75;124.05;;;;;;;3.79;70.17;99182.16;240077;1197;23125;-75
2021/03/25 22:52:19;;;;;;;304.47;132.20;;;;;;;3.77;69.93;99185.05;239858;1193;23118;-75
2021/03/25 22:57:22;;;;;;;297.47;129.50;;;;;;;3.73;70.63;99181.25;239585;1196;23099;-75
2021/03/25 23:02:24;;;;;;;311.03;128.73;;;;;;;3.72;70.64;99194.73;239756;1196;23122;-75
2021/03/25 23:07:28;;;;;;;297.60;129.25;;;;;;;3.68;70.47;99190.94;239883;1193;23095;-75
2021/03/25 23:12:31;;;;;;;316.80;126.55;;;;;;;3.62;70.00;99191.88;239883;1199;23105;-74
2021/03/25 23:17:34;;;;;;;316.13;129.93;;;;;;;3.61;70.62;99191.09;239451;1196;23128;-76
2021/03/25 23:22:43;;;;;;;314.40;135.07;;;;;;;3.62;71.00;99192.67;239671;1196;23104;-76
2021/03/25 23:27:51;;;;;;;305.80;131.07;;;;;;;3.63;71.08;99193.50;239685;1193;26373;-76